AirNav   Air Wisconsin Up To $57,000 Bonus
 
 1466 users online  

MI98 Sault Ste Marie International Seaplane Base
Sault Ste Marie, Michigan, USA


FAA INFORMATION EFFECTIVE 02 JANUARY 2020

Location

FAA Identifier: MI98
Lat/Long: 46-29-01.2700N 084-18-06.9400W
46-29.021167N 084-18.115667W
46.4836861,-84.3019278
(estimated)
Elevation: 575 ft. / 175 m (estimated)
From city: 2 miles SE of SAULT STE MARIE, MI
Time zone: UTC +0 (year round; does not observe DST)
Zip code: 49788

Seaplane Base Operations

Seaplane Base use: Private use. Permission required prior to landing
Activation date: 10/2019
Control tower: no
ARTCC: MINNEAPOLIS CENTER
FSS: GREEN BAY FLIGHT SERVICE STATION
Attendance: 
Segmented circle: no

Seaplane Base Communications

WX ASOS at ANJ (2.8 nm W): 118.375 (906-632-8501)
WX AWOS-3PT at CIU (16 nm SW): 127.575 (906-495-7134)

Nearby radio navigation aids

VOR radial/distance  VOR name  Freq  Var
SSMr011/4.3SAULT STE MARIE VOR/DME112.2004W

 
NDB name  Hdg/Dist  Freq  Var  ID
KOLOE055/13.540007WCI -.-. ..

Seaplane Base Services

Runway Information

Runway 11W/29W

Dimensions: 7000 x 300 ft. / 2134 x 91 m
Surface: water
RUNWAY 11W  RUNWAY 29W
Traffic pattern: leftleft

Runway 15W/33W

Dimensions: 7000 x 300 ft. / 2134 x 91 m
Surface: water
RUNWAY 15W  RUNWAY 33W
Traffic pattern: leftleft

Runway 16W/34W

Dimensions: 3000 x 150 ft. / 914 x 46 m
Surface: water
RUNWAY 16W  RUNWAY 34W
Traffic pattern: leftleft

Seaplane Base Ownership and Management from official FAA records

Ownership: Privately-owned
Owner: CITY OF SAULT ST. MARIE
225 E. PORTAGE AVE
SAULT ST. MARIE, MI 49783
Phone 906-632-5717
Manager: LARRY PUTNAM/ TOM BROWN
2144 MERIDAN ST.
SAULT ST. MARIE, MI 49783
Phone 906-635-0252

Seaplane Base Operational Statistics

Aircraft based on the field: 4
Single engine airplanes: 1
Multi engine airplanes: 1
Helicopters: 1
Gliders airplanes: 1
    

Instrument Procedures

There are no published instrument procedures at MI98.

Some nearby airports with instrument procedures:

KANJ - Sault Ste Marie Municipal Airport/Sanderson Field (3 nm W)
KCIU - Chippewa County International Airport (16 nm SW)
KDRM - Drummond Island Airport (37 nm SE)
KMCD - Mackinac Island Airport (40 nm S)
83D - Mackinac County Airport (40 nm SW)
 
Loc | Ops | Rwys | IFR | FBO | Links
Com | Nav | Svcs | Stats | Notes
Aerial photo
No photo
 
Airport distance calculator
Flying to Sault Ste Marie International Seaplane Base? Find the distance to fly.

From to MI98

Sunrise and sunset
Times for 25-Jan-2020
 Zulu (UTC)
Morning civil twilight12:37
Sunrise13:10
Sunset22:30
Evening civil twilight23:02

Current date and time
Zulu (UTC)  25-Jan-2020 13:43:43
 
METAR
KANJ 
3nm W 
251255Z AUTO 09005KT 10SM OVC007 01/01 A2978 RMK AO2 SLP088 T00110006
CYAM 
9nm W 
251300Z 08006KT 3SM -DZ BR BKN008 00/M00 A2978 RMK ST8 SLP094
KCIU 
16nm SW 
251324Z AUTO 09007KT 1SM UP BR OVC002 01/00 A2977 RMK AO2 P0000 FZRANO
TAF
CYAM 
9nm W 
250937Z 2509/2520 08008KT 3/8SM SHSN BKN001 BKN005 OVC010 TEMPO 2509/2511 5SM -SHSNRA FEW001 SCT005 OVC010 FM251100 07008KT 11/2SM -SHSN OVC005 TEMPO 2511/2514 6SM -SNRA SCT005 OVC012 PROB30 2511/2514 2SM -FZDZ BR FM251400 07008KT 1SM -DZ BR OVC002 TEMPO 2514/2520 3SM BR OVC008 RMK NXT FCST BY 251400Z
NOTAMs
Click for the latest NOTAMs
NOTAMs are issued by the DoD/FAA and will open in a separate window not controlled by AirNav.

 

 
 

Would you like to see your business listed on this page?

 If your business provides an interesting product or service to pilots, flight crews, aircraft, or users of the Sault Ste Marie International Seaplane Base, you should consider listing it here.  To start the listing process, click on the button below
 
Add a business
 

Other Pages about Sault Ste Marie International Seaplane Base

Update a link
 
Copyright © AirNav, LLC. All rights reserved. Privacy Policy  Contact